createdAt,value
2018-06-18T00:00:20.691Z,1006.95
2018-06-18T00:01:20.717Z,1006.93
2018-06-18T00:02:20.734Z,1006.92
2018-06-18T00:03:20.761Z,1006.9
2018-06-18T00:04:20.785Z,1006.89
2018-06-18T00:05:20.806Z,1006.93
2018-06-18T00:06:20.833Z,1006.95
2018-06-18T00:07:20.860Z,1006.92
2018-06-18T00:08:20.881Z,1006.98
2018-06-18T00:09:20.897Z,1006.99
2018-06-18T00:10:20.929Z,1007.01
2018-06-18T00:11:20.946Z,1007.03
2018-06-18T00:12:20.971Z,1007.01
2018-06-18T00:13:20.998Z,1007.05
2018-06-18T00:14:21.021Z,1007.03
2018-06-18T00:15:21.040Z,1007
2018-06-18T00:16:21.064Z,1007.01
2018-06-18T00:17:21.086Z,1007
2018-06-18T00:18:21.115Z,1007.02
2018-06-18T00:19:21.136Z,1006.99
2018-06-18T00:20:21.156Z,1007.04
2018-06-18T00:21:21.181Z,1007.08
2018-06-18T00:22:21.211Z,1007.07
2018-06-18T00:23:21.235Z,1007.11
2018-06-18T00:24:21.258Z,1007.12
2018-06-18T00:25:21.276Z,1007.12
2018-06-18T00:26:21.297Z,1007.13
2018-06-18T00:27:21.317Z,1007.13
2018-06-18T00:28:21.344Z,1007.19
2018-06-18T00:29:21.371Z,1007.18
2018-06-18T00:30:21.389Z,1007.16
2018-06-18T00:31:21.412Z,1007.2
2018-06-18T00:32:21.438Z,1007.22
2018-06-18T00:33:21.466Z,1007.27
2018-06-18T00:34:21.489Z,1007.28
2018-06-18T00:35:21.510Z,1007.24
2018-06-18T00:36:21.531Z,1007.23
2018-06-18T00:37:21.553Z,1007.27
2018-06-18T00:38:21.575Z,1007.24
2018-06-18T00:39:21.601Z,1007.25
2018-06-18T00:40:21.629Z,1007.27
2018-06-18T00:41:21.647Z,1007.25
2018-06-18T00:42:21.667Z,1007.26
2018-06-18T00:43:21.694Z,1007.29
2018-06-18T00:44:21.714Z,1007.26
2018-06-18T00:45:21.745Z,1007.24
2018-06-18T00:46:21.768Z,1007.23
2018-06-18T00:47:21.786Z,1007.21
2018-06-18T00:48:21.809Z,1007.22
2018-06-18T00:49:21.832Z,1007.22
2018-06-18T00:50:21.856Z,1007.19
2018-06-18T00:51:21.878Z,1007.22
2018-06-18T00:52:21.907Z,1007.25
2018-06-18T00:53:21.922Z,1007.23
2018-06-18T00:54:21.952Z,1007.21
2018-06-18T00:55:21.968Z,1007.24
2018-06-18T00:56:21.994Z,1007.22
2018-06-18T00:57:22.022Z,1007.2
2018-06-18T00:58:22.046Z,1007.23
2018-06-18T00:59:22.071Z,1007.24
2018-06-18T01:00:22.086Z,1007.21
2018-06-18T01:01:22.113Z,1007.21
2018-06-18T01:02:22.129Z,1007.25
2018-06-18T01:03:22.160Z,1007.28
2018-06-18T01:04:22.174Z,1007.3
2018-06-18T01:05:22.201Z,1007.3
2018-06-18T01:06:22.222Z,1007.29
2018-06-18T01:07:22.248Z,1007.31
2018-06-18T01:08:22.268Z,1007.36
2018-06-18T01:09:22.290Z,1007.39
2018-06-18T01:10:22.418Z,1007.38
2018-06-18T01:11:22.359Z,1007.4
2018-06-18T01:12:22.361Z,1007.38
2018-06-18T01:13:22.385Z,1007.4
2018-06-18T01:14:22.413Z,1007.4
2018-06-18T01:15:22.433Z,1007.37
2018-06-18T01:16:22.450Z,1007.38
2018-06-18T01:17:22.478Z,1007.39
2018-06-18T01:18:22.496Z,1007.36
2018-06-18T01:19:22.526Z,1007.34
2018-06-18T01:20:22.543Z,1007.3
2018-06-18T01:21:22.575Z,1007.31
2018-06-18T01:22:22.594Z,1007.3
2018-06-18T01:23:22.620Z,1007.34
2018-06-18T01:24:22.638Z,1007.29
2018-06-18T01:25:22.659Z,1007.33
2018-06-18T01:26:22.679Z,1007.34
2018-06-18T01:27:22.702Z,1007.39
2018-06-18T01:28:22.730Z,1007.42
2018-06-18T01:29:22.746Z,1007.4
2018-06-18T01:30:22.777Z,1007.45
2018-06-18T01:31:22.797Z,1007.5
2018-06-18T01:32:22.819Z,1007.47
2018-06-18T01:33:22.837Z,1007.47
2018-06-18T01:34:22.870Z,1007.51
2018-06-18T01:35:22.891Z,1007.52
2018-06-18T01:36:22.915Z,1007.47
2018-06-18T01:37:22.933Z,1007.47
2018-06-18T01:38:22.958Z,1007.47
2018-06-18T01:39:22.977Z,1007.45
2018-06-18T01:40:22.998Z,1007.45
2018-06-18T01:41:23.028Z,1007.47
2018-06-18T01:42:23.053Z,1007.45
2018-06-18T01:43:23.073Z,1007.48
2018-06-18T01:44:23.099Z,1007.42
2018-06-18T01:45:23.120Z,1007.45
2018-06-18T01:46:23.142Z,1007.43
2018-06-18T01:47:23.161Z,1007.42
2018-06-18T01:48:23.197Z,1007.42
2018-06-18T01:49:23.210Z,1007.41
2018-06-18T01:50:23.233Z,1007.43
2018-06-18T01:51:23.249Z,1007.41
2018-06-18T01:52:23.278Z,1007.42
2018-06-18T01:53:23.319Z,1007.43
2018-06-18T01:54:23.341Z,1007.46
2018-06-18T01:55:23.354Z,1007.46
2018-06-18T01:56:23.369Z,1007.49
2018-06-18T01:57:23.396Z,1007.48
2018-06-18T01:58:23.410Z,1007.52
2018-06-18T01:59:23.436Z,1007.52
2018-06-18T02:00:23.455Z,1007.53
2018-06-18T02:01:23.478Z,1007.52
2018-06-18T02:02:23.509Z,1007.55
2018-06-18T02:03:23.528Z,1007.5
2018-06-18T02:04:23.548Z,1007.49
2018-06-18T02:05:23.576Z,1007.5
2018-06-18T02:06:23.599Z,1007.44
2018-06-18T02:07:23.622Z,1007.46
2018-06-18T02:08:23.639Z,1007.45
2018-06-18T02:09:23.663Z,1007.45
2018-06-18T02:10:23.720Z,1007.47
2018-06-18T02:11:23.713Z,1007.48
2018-06-18T02:12:23.734Z,1007.52
2018-06-18T02:13:23.753Z,1007.52
2018-06-18T02:14:23.780Z,1007.51
2018-06-18T02:15:23.799Z,1007.55
2018-06-18T02:16:23.820Z,1007.58
2018-06-18T02:17:23.848Z,1007.56
2018-06-18T02:18:23.872Z,1007.58
2018-06-18T02:19:23.895Z,1007.57
2018-06-18T02:20:23.910Z,1007.6
2018-06-18T02:21:23.932Z,1007.62
2018-06-18T02:22:23.961Z,1007.62
2018-06-18T02:23:23.983Z,1007.66
2018-06-18T02:24:24.003Z,1007.67
2018-06-18T02:25:24.023Z,1007.67
2018-06-18T02:26:24.049Z,1007.65
2018-06-18T02:27:24.081Z,1007.69
2018-06-18T02:28:24.100Z,1007.73
2018-06-18T02:29:24.119Z,1007.73
2018-06-18T02:30:24.137Z,1007.79
2018-06-18T02:31:24.163Z,1007.79
2018-06-18T02:32:24.184Z,1007.76
2018-06-18T02:33:24.207Z,1007.76
2018-06-18T02:34:24.240Z,1007.75
2018-06-18T02:35:24.253Z,1007.8
2018-06-18T02:36:24.276Z,1007.76
2018-06-18T02:37:24.297Z,1007.84
2018-06-18T02:38:24.333Z,1007.82
2018-06-18T02:39:24.347Z,1007.84
2018-06-18T02:40:24.372Z,1007.83
2018-06-18T02:41:24.391Z,1007.82
2018-06-18T02:42:24.411Z,1007.81
2018-06-18T02:43:24.431Z,1007.75
2018-06-18T02:44:24.460Z,1007.73
2018-06-18T02:45:24.478Z,1007.72
2018-06-18T02:46:24.501Z,1007.68
2018-06-18T02:47:24.524Z,1007.69
2018-06-18T02:48:24.545Z,1007.65
2018-06-18T02:49:24.570Z,1007.64
2018-06-18T02:50:24.591Z,1007.62
2018-06-18T02:51:24.611Z,1007.61
2018-06-18T02:52:24.635Z,1007.65
2018-06-18T02:53:24.668Z,1007.64
2018-06-18T02:54:24.688Z,1007.67
2018-06-18T02:55:24.706Z,1007.64
2018-06-18T02:56:24.732Z,1007.7
2018-06-18T02:57:24.754Z,1007.69
2018-06-18T02:58:24.773Z,1007.75
2018-06-18T02:59:24.798Z,1007.75
2018-06-18T03:00:24.826Z,1007.76
2018-06-18T03:01:24.845Z,1007.78
2018-06-18T03:02:24.874Z,1007.77
2018-06-18T03:03:24.889Z,1007.75
2018-06-18T03:04:24.911Z,1007.76
2018-06-18T03:05:24.937Z,1007.72
2018-06-18T03:06:24.956Z,1007.75
2018-06-18T03:07:24.980Z,1007.77
2018-06-18T03:08:24.997Z,1007.79
2018-06-18T03:09:25.024Z,1007.8
2018-06-18T03:10:25.045Z,1007.82
2018-06-18T03:11:25.069Z,1007.83
2018-06-18T03:12:25.091Z,1007.84
2018-06-18T03:13:25.111Z,1007.91
2018-06-18T03:14:25.137Z,1007.92
2018-06-18T03:15:25.157Z,1007.96
2018-06-18T03:16:25.179Z,1008.01
2018-06-18T03:17:25.199Z,1008.01
2018-06-18T03:18:25.229Z,1008.04
2018-06-18T03:19:25.250Z,1008.03
2018-06-18T03:20:25.267Z,1008.07
2018-06-18T03:21:25.289Z,1008.11
2018-06-18T03:22:25.318Z,1008.1
2018-06-18T03:23:25.342Z,1008.09
2018-06-18T03:24:25.361Z,1008.1
2018-06-18T03:25:25.386Z,1008.05
2018-06-18T03:26:25.406Z,1008.07
2018-06-18T03:27:25.423Z,1008.02
2018-06-18T03:28:25.454Z,1007.99
2018-06-18T03:29:25.468Z,1007.99
2018-06-18T03:30:25.494Z,1007.99
2018-06-18T03:31:25.513Z,1007.96
2018-06-18T03:32:25.543Z,1008
2018-06-18T03:33:25.566Z,1007.96
2018-06-18T03:34:25.582Z,1007.98
2018-06-18T03:35:25.609Z,1007.97
2018-06-18T03:36:25.631Z,1008.01
2018-06-18T03:37:25.648Z,1008
2018-06-18T03:38:25.672Z,1008.04
2018-06-18T03:39:25.697Z,1008.05
2018-06-18T03:40:25.720Z,1008.02
2018-06-18T03:41:25.742Z,1008.08
2018-06-18T03:42:25.764Z,1008.09
2018-06-18T03:43:25.785Z,1008.09
2018-06-18T03:44:25.809Z,1008.07
2018-06-18T03:45:25.834Z,1008.09
2018-06-18T03:46:25.853Z,1008.04
2018-06-18T03:47:25.871Z,1008.05
2018-06-18T03:48:25.898Z,1008.08
2018-06-18T03:49:25.922Z,1008.06
2018-06-18T03:50:25.947Z,1008.06
2018-06-18T03:51:25.969Z,1008.1
2018-06-18T03:52:25.992Z,1008.05
2018-06-18T03:53:26.016Z,1008.05
2018-06-18T03:54:26.033Z,1008.04
2018-06-18T03:55:26.060Z,1007.97
2018-06-18T03:56:26.077Z,1008.02
2018-06-18T03:57:26.101Z,1008.02
2018-06-18T03:58:26.122Z,1008.02
2018-06-18T03:59:26.155Z,1007.98
2018-06-18T04:00:26.168Z,1007.97
2018-06-18T04:01:26.185Z,1007.99
2018-06-18T04:02:26.213Z,1008
2018-06-18T04:03:26.232Z,1007.99
2018-06-18T04:04:26.252Z,1007.97
2018-06-18T04:05:26.293Z,1007.95
2018-06-18T04:06:26.305Z,1007.96
2018-06-18T04:07:26.319Z,1007.98
2018-06-18T04:08:26.342Z,1007.95
2018-06-18T04:09:26.368Z,1007.97
2018-06-18T04:10:26.394Z,1008.04
2018-06-18T04:11:26.415Z,1008.05
2018-06-18T04:12:26.435Z,1008.06
2018-06-18T04:13:26.455Z,1008.11
2018-06-18T04:14:26.483Z,1008.1
2018-06-18T04:15:26.505Z,1008.12
2018-06-18T04:16:26.528Z,1008.13
2018-06-18T04:17:26.544Z,1008.09
2018-06-18T04:18:26.568Z,1008.15
2018-06-18T04:19:26.626Z,1008.1
2018-06-18T04:20:26.613Z,1008.15
2018-06-18T04:21:26.641Z,1008.12
2018-06-18T04:22:26.664Z,1008.16
2018-06-18T04:23:26.690Z,1008.13
2018-06-18T04:24:26.703Z,1008.19
2018-06-18T04:25:26.725Z,1008.16
2018-06-18T04:26:26.752Z,1008.2
2018-06-18T04:27:26.769Z,1008.2
2018-06-18T04:28:26.791Z,1008.2
2018-06-18T04:29:26.812Z,1008.21
2018-06-18T04:30:26.842Z,1008.2
2018-06-18T04:31:26.858Z,1008.15
2018-06-18T04:32:26.882Z,1008.19
2018-06-18T04:33:26.905Z,1008.2
2018-06-18T04:34:26.930Z,1008.17
2018-06-18T04:35:26.950Z,1008.2
2018-06-18T04:36:26.971Z,1008.16
2018-06-18T04:37:27.004Z,1008.18
2018-06-18T04:38:27.020Z,1008.2
2018-06-18T04:39:27.043Z,1008.24
2018-06-18T04:40:27.059Z,1008.25
2018-06-18T04:41:27.081Z,1008.28
2018-06-18T04:42:27.109Z,1008.31
2018-06-18T04:43:27.131Z,1008.32
2018-06-18T04:44:27.154Z,1008.35
2018-06-18T04:45:27.172Z,1008.35
2018-06-18T04:46:27.196Z,1008.34
2018-06-18T04:47:27.216Z,1008.31
2018-06-18T04:48:27.243Z,1008.33
2018-06-18T04:49:27.269Z,1008.3
2018-06-18T04:50:27.287Z,1008.31
2018-06-18T04:51:27.317Z,1008.3
2018-06-18T04:52:27.331Z,1008.31
2018-06-18T04:53:27.353Z,1008.28
2018-06-18T04:54:27.377Z,1008.29
2018-06-18T04:55:27.398Z,1008.28
2018-06-18T04:56:27.527Z,1008.37
2018-06-18T04:57:27.449Z,1008.36
2018-06-18T04:58:27.462Z,1008.37
2018-06-18T04:59:27.487Z,1008.38
2018-06-18T05:00:27.515Z,1008.37
2018-06-18T05:01:27.530Z,1008.39
2018-06-18T05:02:27.561Z,1008.38
2018-06-18T05:03:27.577Z,1008.4
2018-06-18T05:04:27.604Z,1008.44
2018-06-18T05:05:27.623Z,1008.44
2018-06-18T05:06:27.643Z,1008.4
2018-06-18T05:07:27.681Z,1008.38
2018-06-18T05:08:27.696Z,1008.35
2018-06-18T05:09:27.716Z,1008.34
2018-06-18T05:10:27.738Z,1008.34
2018-06-18T05:11:27.758Z,1008.3
2018-06-18T05:12:27.782Z,1008.3
2018-06-18T05:13:27.806Z,1008.33
2018-06-18T05:14:27.830Z,1008.3
2018-06-18T05:15:27.848Z,1008.31
2018-06-18T05:16:27.874Z,1008.31
2018-06-18T05:17:27.897Z,1008.34
2018-06-18T05:18:27.920Z,1008.35
2018-06-18T05:19:27.941Z,1008.36
2018-06-18T05:20:27.989Z,1008.36
2018-06-18T05:21:27.989Z,1008.39
2018-06-18T05:22:28.009Z,1008.42
2018-06-18T05:23:28.034Z,1008.42
2018-06-18T05:24:28.051Z,1008.45
2018-06-18T05:25:28.078Z,1008.45
2018-06-18T05:26:28.147Z,1008.46
2018-06-18T05:27:28.122Z,1008.45
2018-06-18T05:28:28.143Z,1008.46
2018-06-18T05:29:28.166Z,1008.4
2018-06-18T05:30:28.186Z,1008.4
2018-06-18T05:31:28.206Z,1008.42
2018-06-18T05:32:28.234Z,1008.44
2018-06-18T05:33:28.257Z,1008.45
2018-06-18T05:34:28.278Z,1008.48
2018-06-18T05:35:28.344Z,1008.51
2018-06-18T05:36:28.325Z,1008.54
2018-06-18T05:37:28.348Z,1008.52
2018-06-18T05:38:28.367Z,1008.51
2018-06-18T05:39:28.388Z,1008.54
2018-06-18T05:40:28.419Z,1008.56
2018-06-18T05:41:28.432Z,1008.5
2018-06-18T05:42:28.464Z,1008.55
2018-06-18T05:43:28.530Z,1008.55
2018-06-18T05:44:28.503Z,1008.52
2018-06-18T05:45:28.527Z,1008.5
2018-06-18T05:46:28.550Z,1008.54
2018-06-18T05:47:28.572Z,1008.55
2018-06-18T05:48:28.598Z,1008.55
2018-06-18T05:49:28.622Z,1008.56
2018-06-18T05:50:28.719Z,1008.58
2018-06-18T05:51:28.662Z,1008.61
2018-06-18T05:52:28.683Z,1008.63
2018-06-18T05:53:28.711Z,1008.66
2018-06-18T05:54:28.735Z,1008.63
2018-06-18T05:55:28.756Z,1008.63
2018-06-18T05:56:28.782Z,1008.64
2018-06-18T05:57:28.805Z,1008.62
2018-06-18T05:58:28.864Z,1008.63
2018-06-18T05:59:28.843Z,1008.65
2018-06-18T06:00:28.875Z,1008.66
2018-06-18T06:01:28.893Z,1008.67
2018-06-18T06:02:28.920Z,1008.67
2018-06-18T06:03:28.931Z,1008.66
2018-06-18T06:04:28.958Z,1008.7
2018-06-18T06:05:28.987Z,1008.66
2018-06-18T06:06:29.004Z,1008.68
2018-06-18T06:07:29.024Z,1008.62
2018-06-18T06:08:29.055Z,1008.67
2018-06-18T06:09:29.079Z,1008.65
2018-06-18T06:10:29.097Z,1008.65
2018-06-18T06:11:29.127Z,1008.67
2018-06-18T06:12:29.144Z,1008.69
2018-06-18T06:13:29.165Z,1008.67
2018-06-18T06:14:29.192Z,1008.68
2018-06-18T06:15:29.211Z,1008.67
2018-06-18T06:16:29.238Z,1008.69
2018-06-18T06:17:29.255Z,1008.7
2018-06-18T06:18:29.383Z,1008.69
2018-06-18T06:19:29.306Z,1008.68
2018-06-18T06:20:29.326Z,1008.7
2018-06-18T06:21:29.344Z,1008.7
2018-06-18T06:22:29.424Z,1008.74
2018-06-18T06:23:29.491Z,1008.77
2018-06-18T06:24:29.416Z,1008.77
2018-06-18T06:25:29.434Z,1008.79
2018-06-18T06:26:29.461Z,1008.84
2018-06-18T06:27:29.489Z,1008.85
2018-06-18T06:28:29.504Z,1008.87
2018-06-18T06:29:29.547Z,1008.88
2018-06-18T06:30:29.558Z,1008.89
2018-06-18T06:31:29.578Z,1008.93
2018-06-18T06:32:29.604Z,1008.93
2018-06-18T06:33:29.621Z,1008.9
2018-06-18T06:34:29.646Z,1008.92
2018-06-18T06:35:29.668Z,1008.89
2018-06-18T06:36:29.690Z,1008.88
2018-06-18T06:37:29.784Z,1008.87
2018-06-18T06:38:29.738Z,1008.9
2018-06-18T06:39:29.758Z,1008.88
2018-06-18T06:40:29.781Z,1008.89
2018-06-18T06:41:29.802Z,1008.93
2018-06-18T06:42:29.826Z,1008.99
2018-06-18T06:43:29.848Z,1008.98
2018-06-18T06:44:29.877Z,1008.98
2018-06-18T06:45:29.896Z,1008.98
2018-06-18T06:46:29.920Z,1009.03
2018-06-18T06:47:29.945Z,1009.03
2018-06-18T06:48:29.968Z,1009.03
2018-06-18T06:49:29.988Z,1009.06
2018-06-18T06:50:30.017Z,1009.11
2018-06-18T06:51:30.042Z,1009.14
2018-06-18T06:52:30.059Z,1009.13
2018-06-18T06:53:30.079Z,1009.15
2018-06-18T06:54:30.109Z,1009.13
2018-06-18T06:55:30.135Z,1009.19
2018-06-18T06:56:30.157Z,1009.13
2018-06-18T06:57:30.181Z,1009.16
2018-06-18T06:58:30.194Z,1009.18
2018-06-18T06:59:30.228Z,1009.19
2018-06-18T07:00:30.247Z,1009.2
2018-06-18T07:01:30.266Z,1009.22
2018-06-18T07:02:30.290Z,1009.22
2018-06-18T07:03:30.317Z,1009.22
2018-06-18T07:04:30.340Z,1009.21
2018-06-18T07:05:30.358Z,1009.24
2018-06-18T07:06:30.384Z,1009.22
2018-06-18T07:07:30.404Z,1009.27
2018-06-18T07:08:30.458Z,1009.26
2018-06-18T07:09:30.453Z,1009.22
2018-06-18T07:10:30.479Z,1009.25
2018-06-18T07:11:30.496Z,1009.19
2018-06-18T07:12:30.525Z,1009.16
2018-06-18T07:13:30.596Z,1009.17
2018-06-18T07:14:30.573Z,1009.11
2018-06-18T07:15:30.587Z,1009.06
2018-06-18T07:16:30.612Z,1009.05
2018-06-18T07:17:30.633Z,1009.09
2018-06-18T07:18:30.673Z,1009.06
2018-06-18T07:19:30.682Z,1009.05
2018-06-18T07:20:30.704Z,1009.1
2018-06-18T07:21:30.728Z,1009.1
2018-06-18T07:22:30.774Z,1009.12
2018-06-18T07:23:30.773Z,1009.17
2018-06-18T07:24:30.802Z,1009.14
2018-06-18T07:25:30.818Z,1009.25
2018-06-18T07:26:30.851Z,1009.2
2018-06-18T07:27:30.869Z,1009.23
2018-06-18T07:28:30.889Z,1009.16
2018-06-18T07:29:30.919Z,1009.16
2018-06-18T07:30:31.077Z,1009.16
2018-06-18T07:31:30.962Z,1009.12
2018-06-18T07:32:30.988Z,1009.12
2018-06-18T07:33:31.012Z,1009.12
2018-06-18T07:34:31.033Z,1009.07
2018-06-18T07:35:31.059Z,1009.09
2018-06-18T07:36:31.081Z,1009.06
2018-06-18T07:37:31.104Z,1009.08
2018-06-18T07:38:31.128Z,1009.12
2018-06-18T07:39:31.144Z,1009.13
2018-06-18T07:40:31.167Z,1009.18
2018-06-18T07:41:31.194Z,1009.19
2018-06-18T07:42:31.218Z,1009.21
2018-06-18T07:43:31.245Z,1009.26
2018-06-18T07:44:31.262Z,1009.29
2018-06-18T07:45:31.292Z,1009.35
2018-06-18T07:46:31.311Z,1009.37
2018-06-18T07:47:31.338Z,1009.38
2018-06-18T07:48:31.359Z,1009.42
2018-06-18T07:49:31.380Z,1009.45
2018-06-18T07:50:31.402Z,1009.44
2018-06-18T07:51:31.534Z,1009.43
2018-06-18T07:52:31.454Z,1009.47
2018-06-18T07:53:31.474Z,1009.48
2018-06-18T07:54:31.492Z,1009.5
2018-06-18T07:55:31.523Z,1009.46
2018-06-18T07:56:31.549Z,1009.47
2018-06-18T07:57:31.591Z,1009.48
2018-06-18T07:58:31.591Z,1009.46
2018-06-18T07:59:31.618Z,1009.45
2018-06-18T08:00:31.645Z,1009.46
2018-06-18T08:01:31.658Z,1009.46
2018-06-18T08:02:31.682Z,1009.47
2018-06-18T08:03:31.771Z,1009.5
2018-06-18T08:04:31.727Z,1009.45
2018-06-18T08:05:31.754Z,1009.45
2018-06-18T08:06:31.778Z,1009.49
2018-06-18T08:07:31.804Z,1009.51
2018-06-18T08:08:31.822Z,1009.56
2018-06-18T08:09:31.853Z,1009.57
2018-06-18T08:10:31.875Z,1009.52
2018-06-18T08:11:31.894Z,1009.56
2018-06-18T08:12:31.922Z,1009.58
2018-06-18T08:13:31.976Z,1009.58
2018-06-18T08:14:31.959Z,1009.57
2018-06-18T08:15:31.990Z,1009.6
2018-06-18T08:16:32.009Z,1009.62
2018-06-18T08:17:32.034Z,1009.65
2018-06-18T08:18:32.061Z,1009.66
2018-06-18T08:19:32.076Z,1009.65
2018-06-18T08:20:32.106Z,1009.65
2018-06-18T08:21:32.123Z,1009.65
2018-06-18T08:22:32.151Z,1009.69
2018-06-18T08:23:32.174Z,1009.7
2018-06-18T08:24:32.194Z,1009.69
2018-06-18T08:25:32.217Z,1009.71
2018-06-18T08:26:32.242Z,1009.72
2018-06-18T08:27:32.268Z,1009.74
2018-06-18T08:28:32.295Z,1009.75
2018-06-18T08:29:32.313Z,1009.72
2018-06-18T08:30:32.338Z,1009.73
2018-06-18T08:31:32.365Z,1009.74
2018-06-18T08:32:32.391Z,1009.74
2018-06-18T08:33:32.405Z,1009.69
2018-06-18T08:34:32.432Z,1009.68
2018-06-18T08:35:32.460Z,1009.66
2018-06-18T08:36:32.483Z,1009.65
2018-06-18T08:37:32.503Z,1009.62
2018-06-18T08:38:32.573Z,1009.58
2018-06-18T08:39:32.551Z,1009.57
2018-06-18T08:40:32.575Z,1009.55
2018-06-18T08:41:32.597Z,1009.57
2018-06-18T08:42:32.621Z,1009.59
2018-06-18T08:43:32.640Z,1009.61
2018-06-18T08:44:32.670Z,1009.62
2018-06-18T08:45:32.738Z,1009.62
2018-06-18T08:46:32.719Z,1009.63
2018-06-18T08:47:32.735Z,1009.63
2018-06-18T08:48:32.764Z,1009.61
2018-06-18T08:49:32.787Z,1009.63
2018-06-18T08:50:32.864Z,1009.57
2018-06-18T08:51:32.829Z,1009.59
2018-06-18T08:52:32.860Z,1009.54
2018-06-18T08:53:32.880Z,1009.56
2018-06-18T08:54:32.905Z,1009.61
2018-06-18T08:55:32.940Z,1009.64
2018-06-18T08:56:32.950Z,1009.66
2018-06-18T08:57:32.978Z,1009.63
2018-06-18T08:58:33.001Z,1009.6
2018-06-18T08:59:33.022Z,1009.64
2018-06-18T09:00:33.050Z,1009.67
2018-06-18T09:01:33.075Z,1009.64
2018-06-18T09:02:33.089Z,1009.66
2018-06-18T09:03:33.116Z,1009.66
2018-06-18T09:04:33.187Z,1009.63
2018-06-18T09:05:33.168Z,1009.59
2018-06-18T09:06:33.192Z,1009.57
2018-06-18T09:07:33.211Z,1009.6
2018-06-18T09:08:33.241Z,1009.59
2018-06-18T09:09:33.315Z,1009.61
2018-06-18T09:10:33.295Z,1009.6
2018-06-18T09:11:33.314Z,1009.65
2018-06-18T09:12:33.337Z,1009.6
2018-06-18T09:13:33.358Z,1009.61
2018-06-18T09:14:33.386Z,1009.54
2018-06-18T09:15:33.407Z,1009.49
2018-06-18T09:16:33.428Z,1009.5
2018-06-18T09:17:33.457Z,1009.5
2018-06-18T09:18:33.480Z,1009.57
2018-06-18T09:19:33.498Z,1009.58
2018-06-18T09:20:33.530Z,1009.57
2018-06-18T09:21:33.551Z,1009.58
2018-06-18T09:22:33.579Z,1009.59
2018-06-18T09:23:33.633Z,1009.63
2018-06-18T09:24:33.624Z,1009.56
2018-06-18T09:25:33.650Z,1009.56
2018-06-18T09:26:33.670Z,1009.57
2018-06-18T09:27:33.697Z,1009.59
2018-06-18T09:28:33.717Z,1009.64
2018-06-18T09:29:33.749Z,1009.59
2018-06-18T09:30:33.767Z,1009.56
2018-06-18T09:31:33.801Z,1009.53
2018-06-18T09:32:33.867Z,1009.5
2018-06-18T09:33:33.851Z,1009.48
2018-06-18T09:34:33.872Z,1009.5
2018-06-18T09:35:33.896Z,1009.45
2018-06-18T09:36:33.922Z,1009.52
2018-06-18T09:37:33.943Z,1009.48
2018-06-18T09:38:33.969Z,1009.51
2018-06-18T09:39:33.991Z,1009.48
2018-06-18T09:40:34.026Z,1009.49
2018-06-18T09:41:34.050Z,1009.53
2018-06-18T09:42:34.070Z,1009.46
2018-06-18T09:43:34.098Z,1009.45
2018-06-18T09:44:34.119Z,1009.47
2018-06-18T09:45:34.145Z,1009.49
2018-06-18T09:46:34.175Z,1009.5
2018-06-18T09:47:34.199Z,1009.49
2018-06-18T09:48:34.224Z,1009.48
2018-06-18T09:49:34.249Z,1009.43
2018-06-18T09:50:34.271Z,1009.42
2018-06-18T09:51:34.316Z,1009.39
2018-06-18T09:52:34.331Z,1009.41
2018-06-18T09:53:34.355Z,1009.36
2018-06-18T09:54:34.376Z,1009.4
2018-06-18T09:55:34.408Z,1009.41
2018-06-18T09:56:34.431Z,1009.36
2018-06-18T09:57:34.453Z,1009.34
2018-06-18T09:58:34.481Z,1009.28
2018-06-18T09:59:34.505Z,1009.27
2018-06-18T10:00:34.535Z,1009.29
2018-06-18T10:01:34.563Z,1009.28
2018-06-18T10:02:34.577Z,1009.31
2018-06-18T10:03:34.607Z,1009.32
2018-06-18T10:04:34.637Z,1009.33
2018-06-18T10:05:34.661Z,1009.34
2018-06-18T10:06:34.688Z,1009.32
2018-06-18T10:07:34.714Z,1009.36
2018-06-18T10:08:34.801Z,1009.34
2018-06-18T10:09:34.767Z,1009.28
2018-06-18T10:10:34.843Z,1009.29
2018-06-18T10:11:34.815Z,1009.28
2018-06-18T10:12:34.844Z,1009.27
2018-06-18T10:13:34.864Z,1009.31
2018-06-18T10:14:34.894Z,1009.35
2018-06-18T10:15:34.924Z,1009.33
2018-06-18T10:16:34.948Z,1009.35
2018-06-18T10:17:34.972Z,1009.34
2018-06-18T10:18:34.999Z,1009.31
2018-06-18T10:19:35.025Z,1009.25
2018-06-18T10:20:35.063Z,1009.24
2018-06-18T10:21:35.081Z,1009.22
2018-06-18T10:22:35.104Z,1009.16
2018-06-18T10:23:35.132Z,1009.18
2018-06-18T10:24:35.158Z,1009.12
2018-06-18T10:25:35.187Z,1009.14
2018-06-18T10:26:35.217Z,1009.18
2018-06-18T10:27:35.237Z,1009.1
2018-06-18T10:28:35.263Z,1009.09
2018-06-18T10:29:35.290Z,1009.12
2018-06-18T10:30:35.318Z,1009.11
2018-06-18T10:31:35.343Z,1009.09
2018-06-18T10:32:35.376Z,1009.12
2018-06-18T10:33:35.400Z,1009.14
2018-06-18T10:34:35.432Z,1009.14
2018-06-18T10:35:35.457Z,1009.15
2018-06-18T10:36:35.486Z,1009.14
2018-06-18T10:37:35.510Z,1009.12
2018-06-18T10:38:35.537Z,1009.16
2018-06-18T10:39:35.562Z,1009.2
2018-06-18T10:40:35.590Z,1009.26
2018-06-18T10:41:35.699Z,1009.24
2018-06-18T10:42:35.640Z,1009.23
2018-06-18T10:43:35.675Z,1009.22
2018-06-18T10:44:35.704Z,1009.22
2018-06-18T10:45:35.725Z,1009.26
2018-06-18T10:46:35.750Z,1009.22
2018-06-18T10:47:35.781Z,1009.22
2018-06-18T10:48:35.810Z,1009.2
2018-06-18T10:49:35.838Z,1009.15
2018-06-18T10:50:35.860Z,1009.2
2018-06-18T10:51:35.895Z,1009.19
2018-06-18T10:52:35.918Z,1009.18
2018-06-18T10:53:35.953Z,1009.16
2018-06-18T10:54:35.977Z,1009.18
2018-06-18T10:55:36.003Z,1009.19
2018-06-18T10:56:36.027Z,1009.17
2018-06-18T10:57:36.058Z,1009.12
2018-06-18T10:58:36.083Z,1009.16
2018-06-18T10:59:36.114Z,1009.16
2018-06-18T11:00:36.137Z,1009.14
2018-06-18T11:01:36.168Z,1009.18
2018-06-18T11:02:36.198Z,1009.11
2018-06-18T11:03:36.221Z,1009.11
2018-06-18T11:04:36.250Z,1009.13
2018-06-18T11:05:36.282Z,1009.12
2018-06-18T11:06:36.316Z,1009.08
2018-06-18T11:07:36.329Z,1009.12
2018-06-18T11:08:36.358Z,1009.08
2018-06-18T11:09:36.392Z,1009.04
2018-06-18T11:10:36.414Z,1009.12
2018-06-18T11:11:36.449Z,1009.09
2018-06-18T11:12:36.471Z,1009.12
2018-06-18T11:13:36.514Z,1009.1
2018-06-18T11:14:36.532Z,1009.03
2018-06-18T11:15:36.558Z,1009.06
2018-06-18T11:16:36.642Z,1009.08
2018-06-18T11:17:36.613Z,1009.1
2018-06-18T11:18:36.643Z,1009.08
2018-06-18T11:19:36.669Z,1009.07
2018-06-18T11:20:36.697Z,1009.07
2018-06-18T11:21:36.732Z,1009.01
2018-06-18T11:22:36.754Z,1008.99
2018-06-18T11:23:36.788Z,1008.97
2018-06-18T11:24:36.829Z,1008.98
2018-06-18T11:25:36.846Z,1008.98
2018-06-18T11:26:36.910Z,1008.92
2018-06-18T11:27:36.899Z,1008.91
2018-06-18T11:28:36.953Z,1008.87
2018-06-18T11:29:36.961Z,1008.93
2018-06-18T11:30:36.985Z,1008.95
2018-06-18T11:31:37.017Z,1008.94
2018-06-18T11:32:37.119Z,1008.98
2018-06-18T11:33:37.071Z,1009.02
2018-06-18T11:34:37.103Z,1008.98
2018-06-18T11:35:37.158Z,1009
2018-06-18T11:36:37.154Z,1008.93
2018-06-18T11:37:37.212Z,1008.94
2018-06-18T11:38:37.217Z,1008.92
2018-06-18T11:39:37.272Z,1008.99
2018-06-18T11:40:37.303Z,1008.93
2018-06-18T11:41:37.324Z,1008.9
2018-06-18T11:42:37.336Z,1008.95
2018-06-18T11:43:37.387Z,1008.87
2018-06-18T11:44:37.396Z,1008.88
2018-06-18T11:45:37.423Z,1008.89
2018-06-18T11:46:37.455Z,1008.9
2018-06-18T11:47:37.484Z,1008.89
2018-06-18T11:48:37.507Z,1008.91
2018-06-18T11:49:37.537Z,1008.91
2018-06-18T11:50:37.568Z,1008.93
2018-06-18T11:51:37.596Z,1008.88
2018-06-18T11:52:37.644Z,1008.87
2018-06-18T11:53:37.658Z,1008.81
2018-06-18T11:54:37.689Z,1008.84
2018-06-18T11:55:37.713Z,1008.83
2018-06-18T11:56:37.746Z,1008.87
2018-06-18T11:57:37.772Z,1008.87
2018-06-18T11:58:37.803Z,1008.86
2018-06-18T11:59:37.835Z,1008.88
2018-06-18T12:00:37.862Z,1008.9
2018-06-18T12:01:37.896Z,1008.92
2018-06-18T12:02:37.920Z,1008.89
2018-06-18T12:03:37.949Z,1008.87
2018-06-18T12:04:37.978Z,1008.87
2018-06-18T12:05:38.010Z,1008.89
2018-06-18T12:06:38.043Z,1008.87
2018-06-18T12:07:38.067Z,1008.88
2018-06-18T12:08:38.104Z,1008.9